createdAt,value
2018-12-18T00:00:13.802Z,3.00
2018-12-18T00:02:42.442Z,3.00
2018-12-18T00:05:16.474Z,2.80
2018-12-18T00:07:45.118Z,2.80
2018-12-18T00:10:13.800Z,2.80
2018-12-18T00:12:42.446Z,2.70
2018-12-18T00:15:11.079Z,2.70
2018-12-18T00:17:39.705Z,2.70
2018-12-18T00:20:08.403Z,2.60
2018-12-18T00:22:37.075Z,2.50
2018-12-18T00:25:06.507Z,2.60
2018-12-18T00:27:35.160Z,2.60
2018-12-18T00:30:04.646Z,2.60
2018-12-18T00:32:33.308Z,2.30
2018-12-18T00:35:01.956Z,2.50
2018-12-18T00:37:30.579Z,2.60
2018-12-18T00:39:59.183Z,2.60
2018-12-18T00:42:27.841Z,2.50
2018-12-18T00:44:56.469Z,2.60
2018-12-18T00:47:25.091Z,2.40
2018-12-18T00:49:53.703Z,2.40
2018-12-18T00:52:22.321Z,2.30
2018-12-18T00:54:50.952Z,2.40
2018-12-18T00:57:19.576Z,2.40
2018-12-18T00:59:48.191Z,2.50
2018-12-18T01:02:16.813Z,2.50
2018-12-18T01:04:46.382Z,2.40
2018-12-18T01:07:15.123Z,2.30
2018-12-18T01:09:43.775Z,2.30
2018-12-18T01:12:12.451Z,2.20
2018-12-18T01:14:41.089Z,2.20
2018-12-18T01:17:09.747Z,2.10
2018-12-18T01:19:38.376Z,2.10
2018-12-18T01:22:07.058Z,2.20
2018-12-18T01:24:35.718Z,2.20
2018-12-18T01:27:04.344Z,2.20
2018-12-18T01:29:32.967Z,2.20
2018-12-18T01:32:01.627Z,2.10
2018-12-18T01:34:30.335Z,2.00
2018-12-18T01:36:59.013Z,2.10
2018-12-18T01:39:27.627Z,2.10
2018-12-18T01:41:56.268Z,2.00
2018-12-18T01:44:24.884Z,2.00
2018-12-18T01:46:53.521Z,2.10
2018-12-18T01:49:22.141Z,2.00
2018-12-18T01:51:50.772Z,2.00
2018-12-18T01:54:19.395Z,2.00
2018-12-18T01:56:48.019Z,2.00
2018-12-18T01:59:16.640Z,1.90
2018-12-18T02:01:45.273Z,1.90
2018-12-18T02:04:13.924Z,1.90
2018-12-18T02:06:42.532Z,1.90
2018-12-18T02:09:11.300Z,1.90
2018-12-18T02:11:39.959Z,1.90
2018-12-18T02:14:08.584Z,1.90
2018-12-18T02:16:37.228Z,1.90
2018-12-18T02:19:05.831Z,2.00
2018-12-18T02:21:34.468Z,2.00
2018-12-18T02:24:03.126Z,1.90
2018-12-18T02:26:31.817Z,1.70
2018-12-18T02:29:00.539Z,1.60
2018-12-18T02:31:29.178Z,1.60
2018-12-18T02:33:57.802Z,1.60
2018-12-18T02:36:26.428Z,1.60
2018-12-18T02:38:55.098Z,1.60
2018-12-18T02:41:23.729Z,1.60
2018-12-18T02:43:52.359Z,1.70
2018-12-18T02:46:21.011Z,1.80
2018-12-18T02:48:49.656Z,1.80
2018-12-18T02:51:18.268Z,1.80
2018-12-18T02:53:46.919Z,1.80
2018-12-18T02:56:15.544Z,1.70
2018-12-18T02:58:44.146Z,1.80
2018-12-18T03:01:12.785Z,1.70
2018-12-18T03:03:41.431Z,1.60
2018-12-18T03:06:10.091Z,1.70
2018-12-18T03:08:38.726Z,1.70
2018-12-18T03:11:09.459Z,1.60
2018-12-18T03:13:38.095Z,1.60
2018-12-18T03:16:06.739Z,1.60
2018-12-18T03:18:35.412Z,1.60
2018-12-18T03:21:04.114Z,1.60
2018-12-18T03:23:32.751Z,1.60
2018-12-18T03:26:01.351Z,1.60
2018-12-18T03:28:29.988Z,1.60
2018-12-18T03:30:58.631Z,1.60
2018-12-18T03:33:27.308Z,1.60
2018-12-18T03:35:55.951Z,1.50
2018-12-18T03:38:24.575Z,1.50
2018-12-18T03:40:53.195Z,1.40
2018-12-18T03:43:21.812Z,1.50
2018-12-18T03:45:50.445Z,1.50
2018-12-18T03:48:19.059Z,1.50
2018-12-18T03:50:47.680Z,1.50
2018-12-18T03:53:16.297Z,1.60
2018-12-18T03:55:44.971Z,1.50
2018-12-18T03:58:13.635Z,1.50
2018-12-18T04:00:42.289Z,1.50
2018-12-18T04:03:10.915Z,1.60
2018-12-18T04:05:39.560Z,1.50
2018-12-18T04:08:08.192Z,1.50
2018-12-18T04:10:36.853Z,1.50
2018-12-18T04:13:05.536Z,1.40
2018-12-18T04:15:34.164Z,1.40
2018-12-18T04:18:02.808Z,1.40
2018-12-18T04:20:31.431Z,1.30
2018-12-18T04:23:00.263Z,1.30
2018-12-18T04:25:28.904Z,1.30
2018-12-18T04:27:57.523Z,1.40
2018-12-18T04:30:26.171Z,1.30
2018-12-18T04:32:54.793Z,1.30
2018-12-18T04:35:23.417Z,1.30
2018-12-18T04:37:52.036Z,1.20
2018-12-18T04:40:20.678Z,1.30
2018-12-18T04:42:49.294Z,1.30
2018-12-18T04:45:17.986Z,1.20
2018-12-18T04:47:46.685Z,1.20
2018-12-18T04:50:15.419Z,1.30
2018-12-18T04:52:44.097Z,1.20
2018-12-18T04:55:12.804Z,1.20
2018-12-18T04:57:41.429Z,1.10
2018-12-18T05:00:10.656Z,1.10
2018-12-18T05:02:39.319Z,1.10
2018-12-18T05:05:08.020Z,1.10
2018-12-18T05:07:36.632Z,1.10
2018-12-18T05:10:05.583Z,1.10
2018-12-18T05:12:34.587Z,1.10
2018-12-18T05:15:03.242Z,1.10
2018-12-18T05:17:31.899Z,1.10
2018-12-18T05:20:00.507Z,1.10
2018-12-18T05:22:29.156Z,1.00
2018-12-18T05:24:57.789Z,1.10
2018-12-18T05:27:26.395Z,1.10
2018-12-18T05:29:54.988Z,1.10
2018-12-18T05:32:23.638Z,1.10
2018-12-18T05:34:56.486Z,1.10
2018-12-18T05:37:22.890Z,1.00
2018-12-18T05:39:51.502Z,1.10
2018-12-18T05:42:20.123Z,1.00
2018-12-18T05:44:48.731Z,1.00
2018-12-18T05:47:17.328Z,1.00
2018-12-18T05:49:45.939Z,1.00
2018-12-18T05:52:14.563Z,1.00
2018-12-18T05:54:43.167Z,1.00
2018-12-18T05:57:11.767Z,1.00
2018-12-18T05:59:40.530Z,0.90
2018-12-18T06:02:10.834Z,0.90
2018-12-18T06:04:39.838Z,1.00
2018-12-18T06:07:08.442Z,1.00
2018-12-18T06:09:37.076Z,1.00
2018-12-18T06:12:05.718Z,1.00
2018-12-18T06:14:34.397Z,0.90
2018-12-18T06:17:02.998Z,0.90
2018-12-18T06:19:31.603Z,1.00
2018-12-18T06:22:00.208Z,1.00
2018-12-18T06:24:28.807Z,0.90
2018-12-18T06:26:57.415Z,0.80
2018-12-18T06:29:26.042Z,0.80
2018-12-18T06:31:55.442Z,0.80
2018-12-18T06:34:24.213Z,0.70
2018-12-18T06:36:52.821Z,0.80
2018-12-18T06:39:21.422Z,0.80
2018-12-18T06:41:50.027Z,0.80
2018-12-18T06:44:18.647Z,0.90
2018-12-18T06:46:47.252Z,0.70
2018-12-18T06:49:15.849Z,0.70
2018-12-18T06:51:44.483Z,0.70
2018-12-18T06:54:13.254Z,0.70
2018-12-18T06:56:41.876Z,0.80
2018-12-18T06:59:10.536Z,0.80
2018-12-18T07:01:39.198Z,0.70
2018-12-18T07:04:07.843Z,0.70
2018-12-18T07:06:36.486Z,0.70
2018-12-18T07:09:08.230Z,0.70
2018-12-18T07:11:36.910Z,0.70
2018-12-18T07:14:05.523Z,0.70
2018-12-18T07:16:34.150Z,0.70
2018-12-18T07:19:02.764Z,0.80
2018-12-18T07:21:31.391Z,0.70
2018-12-18T07:24:00.078Z,0.70
2018-12-18T07:26:28.703Z,0.80
2018-12-18T07:28:57.362Z,0.80
2018-12-18T07:31:25.967Z,0.80
2018-12-18T07:33:54.574Z,0.80
2018-12-18T07:36:23.185Z,0.80
2018-12-18T07:38:51.792Z,0.80
2018-12-18T07:41:20.396Z,0.80
2018-12-18T07:43:49.012Z,0.90
2018-12-18T07:46:17.631Z,0.90
2018-12-18T07:48:46.247Z,1.00
2018-12-18T07:51:15.159Z,1.10
2018-12-18T07:53:43.788Z,1.20
2018-12-18T07:56:12.389Z,1.20
2018-12-18T07:58:41.004Z,1.20
2018-12-18T08:01:09.626Z,1.30
2018-12-18T08:03:38.282Z,1.40
2018-12-18T08:06:06.903Z,1.50
2018-12-18T08:08:35.519Z,1.60
2018-12-18T08:11:04.159Z,1.70
2018-12-18T08:13:32.751Z,1.80
2018-12-18T08:16:01.351Z,2.00
2018-12-18T08:18:29.970Z,2.10
2018-12-18T08:20:59.987Z,2.20
2018-12-18T08:23:33.234Z,2.30
2018-12-18T08:26:01.897Z,2.40
2018-12-18T08:28:30.524Z,2.60
2018-12-18T08:30:59.150Z,2.70
2018-12-18T08:33:27.764Z,2.70
2018-12-18T08:35:56.386Z,2.80
2018-12-18T08:38:25.094Z,3.00
2018-12-18T08:40:53.731Z,3.00
2018-12-18T08:43:22.345Z,3.10
2018-12-18T08:45:51.039Z,3.30
2018-12-18T08:48:19.675Z,3.40
2018-12-18T08:50:48.398Z,3.50
2018-12-18T08:53:17.161Z,3.60
2018-12-18T08:55:45.831Z,3.70
2018-12-18T08:58:14.481Z,3.80
2018-12-18T09:00:43.095Z,3.90
2018-12-18T09:03:11.734Z,4.00
2018-12-18T09:05:43.274Z,4.30
2018-12-18T09:08:11.019Z,4.40
2018-12-18T09:10:39.886Z,4.60
2018-12-18T09:13:09.059Z,4.70
2018-12-18T09:15:43.144Z,4.90
2018-12-18T09:18:11.762Z,5.00
2018-12-18T09:20:40.419Z,5.00
2018-12-18T09:23:09.036Z,5.10
2018-12-18T09:25:37.655Z,5.20
2018-12-18T09:28:06.295Z,5.20
2018-12-18T09:30:35.703Z,5.20
2018-12-18T09:33:05.660Z,5.30
2018-12-18T09:35:34.291Z,5.30
2018-12-18T09:40:15.868Z,5.40
2018-12-18T09:42:49.768Z,5.50
2018-12-18T09:45:18.472Z,5.50
2018-12-18T09:47:47.115Z,5.60
2018-12-18T09:50:15.772Z,5.70
2018-12-18T09:52:44.383Z,5.70
2018-12-18T09:55:13.047Z,5.80
2018-12-18T09:57:47.122Z,5.90
2018-12-18T10:00:15.801Z,5.90
2018-12-18T10:02:44.438Z,6.00
2018-12-18T10:05:13.080Z,6.00
2018-12-18T10:07:41.708Z,6.00
2018-12-18T10:10:10.365Z,6.00
2018-12-18T10:12:48.213Z,6.10
2018-12-18T10:15:16.921Z,6.20
2018-12-18T10:17:45.553Z,6.20
2018-12-18T10:20:14.175Z,6.20
2018-12-18T10:22:42.827Z,6.30
2018-12-18T10:25:11.606Z,6.30
2018-12-18T10:27:40.245Z,6.30
2018-12-18T10:30:09.059Z,6.40
2018-12-18T10:32:37.817Z,6.40
2018-12-18T10:35:07.099Z,6.50
2018-12-18T10:37:35.772Z,6.60
2018-12-18T10:40:05.977Z,6.60
2018-12-18T10:42:34.606Z,6.60
2018-12-18T10:45:03.300Z,6.60
2018-12-18T10:47:31.967Z,6.60
2018-12-18T10:50:00.597Z,6.70
2018-12-18T10:52:29.244Z,6.70
2018-12-18T10:54:57.863Z,6.70
2018-12-18T10:57:26.517Z,6.70
2018-12-18T10:59:55.156Z,6.70
2018-12-18T11:02:23.791Z,6.70
2018-12-18T11:04:52.419Z,6.80
2018-12-18T11:07:21.043Z,6.80
2018-12-18T11:09:49.688Z,6.90
2018-12-18T11:12:22.760Z,6.90
2018-12-18T11:14:51.431Z,7.00
2018-12-18T11:17:20.075Z,7.10
2018-12-18T11:19:49.564Z,7.10
2018-12-18T11:22:18.551Z,7.20
2018-12-18T11:24:47.196Z,7.20
2018-12-18T11:27:15.835Z,7.30
2018-12-18T11:29:44.489Z,7.40
2018-12-18T11:32:13.168Z,7.40
2018-12-18T11:34:41.787Z,7.40
2018-12-18T11:37:10.399Z,7.60
2018-12-18T11:39:39.090Z,7.60
2018-12-18T11:42:07.710Z,7.60
2018-12-18T11:44:36.358Z,7.70
2018-12-18T11:47:04.987Z,7.70
2018-12-18T11:49:33.612Z,7.80
2018-12-18T11:52:02.228Z,7.90
2018-12-18T11:54:30.844Z,8.00
2018-12-18T11:56:59.496Z,8.00
2018-12-18T11:59:28.107Z,8.10
2018-12-18T12:01:56.711Z,8.10
2018-12-18T12:04:25.377Z,8.10
2018-12-18T12:06:54.160Z,8.10
2018-12-18T12:09:22.784Z,8.20
2018-12-18T12:11:51.408Z,8.10
2018-12-18T12:14:20.045Z,8.20
2018-12-18T12:16:48.656Z,8.30
2018-12-18T12:19:17.283Z,8.30
2018-12-18T12:21:45.945Z,8.20
2018-12-18T12:24:14.575Z,8.30
2018-12-18T12:26:47.627Z,8.20
2018-12-18T12:29:16.287Z,8.30
2018-12-18T12:31:45.018Z,8.30
2018-12-18T12:34:13.614Z,8.30
2018-12-18T12:36:42.266Z,8.30
2018-12-18T12:39:10.899Z,8.30
2018-12-18T12:41:39.526Z,8.30
2018-12-18T12:44:08.155Z,8.30
2018-12-18T12:46:36.776Z,8.30
2018-12-18T12:49:10.764Z,8.40
2018-12-18T12:51:39.418Z,8.40
2018-12-18T12:54:08.039Z,8.40
2018-12-18T12:56:36.683Z,8.40
2018-12-18T12:59:05.348Z,8.50
2018-12-18T13:01:34.052Z,8.50
2018-12-18T13:04:02.679Z,8.50
2018-12-18T13:06:36.490Z,8.60
2018-12-18T13:09:02.008Z,8.60
2018-12-18T13:11:30.788Z,8.60
2018-12-18T13:13:59.436Z,8.60
2018-12-18T13:16:28.070Z,8.60
2018-12-18T13:18:56.699Z,8.60
2018-12-18T13:21:25.340Z,8.60
2018-12-18T13:23:53.868Z,8.70
2018-12-18T13:26:22.497Z,8.80
2018-12-18T13:28:51.147Z,8.80
2018-12-18T13:31:19.784Z,8.70
2018-12-18T13:33:48.391Z,8.70
2018-12-18T13:36:17.119Z,8.70
2018-12-18T13:38:45.733Z,8.80
2018-12-18T13:41:14.350Z,8.80
2018-12-18T13:43:42.997Z,8.80
2018-12-18T13:46:15.054Z,8.80
2018-12-18T13:48:42.310Z,8.80
2018-12-18T13:51:10.951Z,8.80
2018-12-18T13:53:39.564Z,8.80
2018-12-18T13:56:08.325Z,8.90
2018-12-18T13:58:36.957Z,8.90
2018-12-18T14:01:05.610Z,8.90
2018-12-18T14:03:34.282Z,8.90
2018-12-18T14:06:02.920Z,8.80
2018-12-18T14:08:31.552Z,8.90
2018-12-18T14:11:00.183Z,8.90
2018-12-18T14:13:28.836Z,8.90
2018-12-18T14:15:57.487Z,8.90
2018-12-18T14:18:26.283Z,8.90
2018-12-18T14:20:54.993Z,9.00
2018-12-18T14:23:23.607Z,8.90
2018-12-18T14:25:52.238Z,9.00
2018-12-18T14:28:20.899Z,9.00
2018-12-18T14:30:49.519Z,9.10
2018-12-18T14:33:18.154Z,9.10
2018-12-18T14:35:46.790Z,9.10
2018-12-18T14:38:15.414Z,9.20
2018-12-18T14:40:44.251Z,9.20
2018-12-18T14:43:13.187Z,9.20
2018-12-18T14:45:41.822Z,9.20
2018-12-18T14:48:10.500Z,9.20
2018-12-18T14:50:39.136Z,9.20
2018-12-18T14:53:07.760Z,9.20
2018-12-18T14:55:36.395Z,9.20
2018-12-18T14:58:05.034Z,9.20
2018-12-18T15:00:33.668Z,9.20
2018-12-18T15:03:02.336Z,9.30
2018-12-18T15:05:31.040Z,9.30
2018-12-18T15:07:59.683Z,9.30
2018-12-18T15:10:28.299Z,9.40
2018-12-18T15:12:56.957Z,9.40
2018-12-18T15:15:25.603Z,9.40
2018-12-18T15:17:54.233Z,9.40
2018-12-18T15:20:22.895Z,9.40
2018-12-18T15:22:51.508Z,9.40
2018-12-18T15:25:20.183Z,9.40
2018-12-18T15:27:48.825Z,9.50
2018-12-18T15:30:17.460Z,9.40
2018-12-18T15:32:46.144Z,9.40
2018-12-18T15:35:14.825Z,9.40
2018-12-18T15:37:43.730Z,9.40
2018-12-18T15:40:12.385Z,9.40
2018-12-18T15:42:41.079Z,9.40
2018-12-18T15:45:09.752Z,9.40
2018-12-18T15:47:38.427Z,9.40
2018-12-18T15:50:08.401Z,9.40
2018-12-18T15:52:37.066Z,9.40
2018-12-18T15:55:06.153Z,9.40
2018-12-18T15:57:34.804Z,9.40
2018-12-18T16:00:03.847Z,9.40
2018-12-18T16:02:32.692Z,9.50
2018-12-18T16:05:01.363Z,9.40
2018-12-18T16:07:30.032Z,9.50
2018-12-18T16:09:58.675Z,9.50
2018-12-18T16:12:27.295Z,9.40
2018-12-18T16:14:55.972Z,9.40
2018-12-18T16:17:24.618Z,9.50
2018-12-18T16:19:53.246Z,9.50
2018-12-18T16:22:21.868Z,9.50
2018-12-18T16:24:50.488Z,9.60
2018-12-18T16:27:19.100Z,9.60
2018-12-18T16:29:47.741Z,9.60
2018-12-18T16:32:16.426Z,9.60
2018-12-18T16:34:45.077Z,9.70
2018-12-18T16:37:13.776Z,9.70
2018-12-18T16:39:42.417Z,9.70
2018-12-18T16:42:11.035Z,9.70
2018-12-18T16:44:39.643Z,9.70
2018-12-18T16:47:08.259Z,9.70
2018-12-18T16:49:36.884Z,9.70
2018-12-18T16:52:05.610Z,9.60
2018-12-18T16:54:34.520Z,9.60
2018-12-18T16:57:03.199Z,9.50
2018-12-18T16:59:31.852Z,9.60
2018-12-18T17:02:00.471Z,9.60
2018-12-18T17:04:29.136Z,9.80
2018-12-18T17:06:57.748Z,9.80
2018-12-18T17:09:26.390Z,9.90
2018-12-18T17:11:55.011Z,10.00
2018-12-18T17:14:23.704Z,10.10
2018-12-18T17:16:52.350Z,10.10
2018-12-18T17:19:20.984Z,10.10
2018-12-18T17:21:49.612Z,10.20
2018-12-18T17:24:18.243Z,10.20
2018-12-18T17:26:47.054Z,10.20
2018-12-18T17:29:15.699Z,10.30
2018-12-18T17:31:44.316Z,10.30
2018-12-18T17:34:12.939Z,10.30
2018-12-18T17:36:41.555Z,10.30
2018-12-18T17:39:10.198Z,10.30
2018-12-18T17:41:38.822Z,10.30
2018-12-18T17:44:07.447Z,10.20
2018-12-18T17:46:36.098Z,10.20
2018-12-18T17:49:04.759Z,10.20
2018-12-18T17:51:33.363Z,10.10
2018-12-18T17:54:01.968Z,10.10
2018-12-18T17:56:30.578Z,10.10
2018-12-18T17:58:59.232Z,10.10
2018-12-18T18:01:27.843Z,10.00
2018-12-18T18:03:56.467Z,10.00
2018-12-18T18:06:25.112Z,9.90
2018-12-18T18:08:53.737Z,9.90
2018-12-18T18:11:22.415Z,9.90
2018-12-18T18:13:51.028Z,9.90
2018-12-18T18:16:19.647Z,9.90
2018-12-18T18:18:48.260Z,9.90
2018-12-18T18:21:16.890Z,9.80
2018-12-18T18:23:46.216Z,9.80
2018-12-18T18:26:15.704Z,9.80
2018-12-18T18:28:44.330Z,9.90
2018-12-18T18:31:12.975Z,9.90
2018-12-18T18:33:41.579Z,9.90
2018-12-18T18:36:10.208Z,9.90
2018-12-18T18:38:38.851Z,9.90
2018-12-18T18:41:07.495Z,9.90
2018-12-18T18:43:36.159Z,9.90
2018-12-18T18:46:04.790Z,9.90
2018-12-18T18:48:33.415Z,9.90
2018-12-18T18:51:02.108Z,9.90
2018-12-18T18:53:30.751Z,9.90
2018-12-18T18:55:59.659Z,9.90
2018-12-18T18:58:28.283Z,9.90
2018-12-18T19:00:57.052Z,9.90
2018-12-18T19:03:25.659Z,9.90
2018-12-18T19:05:54.335Z,10.00
2018-12-18T19:08:23.003Z,10.00
2018-12-18T19:10:51.628Z,10.00
2018-12-18T19:13:20.240Z,10.00
2018-12-18T19:15:48.861Z,10.00
2018-12-18T19:18:17.500Z,10.00
2018-12-18T19:20:46.118Z,10.00
2018-12-18T19:23:14.756Z,10.00
2018-12-18T19:25:43.379Z,10.10
2018-12-18T19:28:12.036Z,10.00
2018-12-18T19:30:40.657Z,10.00
2018-12-18T19:33:09.297Z,10.10
2018-12-18T19:35:37.927Z,10.10
2018-12-18T19:38:07.536Z,10.10
2018-12-18T19:40:36.619Z,10.10
2018-12-18T19:43:05.239Z,10.10
2018-12-18T19:45:33.872Z,10.10
2018-12-18T19:48:02.491Z,10.20
2018-12-18T19:50:31.119Z,10.10
2018-12-18T19:52:59.742Z,10.10
2018-12-18T19:55:28.431Z,10.20
2018-12-18T19:57:57.117Z,10.10
2018-12-18T20:00:25.740Z,10.20
2018-12-18T20:02:54.381Z,10.20
2018-12-18T20:05:23.055Z,10.20
2018-12-18T20:07:51.703Z,10.20
2018-12-18T20:10:20.316Z,10.20
2018-12-18T20:12:48.944Z,10.20
2018-12-18T20:15:17.572Z,10.20
2018-12-18T20:17:46.207Z,10.10
2018-12-18T20:20:14.831Z,10.20
2018-12-18T20:22:43.462Z,10.20
2018-12-18T20:25:12.096Z,10.20
2018-12-18T20:27:40.699Z,10.20
2018-12-18T20:30:09.414Z,10.20
2018-12-18T20:32:38.152Z,10.20
2018-12-18T20:35:06.769Z,10.10
2018-12-18T20:37:35.432Z,10.20
2018-12-18T20:40:04.484Z,10.20
2018-12-18T20:42:33.096Z,10.10
2018-12-18T20:45:01.708Z,10.20
2018-12-18T20:47:30.340Z,10.20
2018-12-18T20:49:58.959Z,10.20
2018-12-18T20:52:27.586Z,10.20
2018-12-18T20:54:56.256Z,10.20
2018-12-18T20:57:24.923Z,10.20
2018-12-18T20:59:53.585Z,10.20
2018-12-18T21:02:22.216Z,10.20
2018-12-18T21:04:50.818Z,10.20
2018-12-18T21:07:19.477Z,10.20
2018-12-18T21:09:48.179Z,10.20
2018-12-18T21:12:21.855Z,10.20
2018-12-18T21:14:51.268Z,10.20
2018-12-18T21:17:19.917Z,10.30
2018-12-18T21:19:55.783Z,10.20
2018-12-18T21:22:26.137Z,10.20
2018-12-18T21:25:03.764Z,10.20
2018-12-18T21:27:34.299Z,10.20
2018-12-18T21:30:04.961Z,10.20
2018-12-18T21:32:35.914Z,10.20
2018-12-18T21:35:05.253Z,10.10
2018-12-18T21:37:33.951Z,10.20
2018-12-18T21:40:02.600Z,10.20
2018-12-18T21:42:31.197Z,10.20
2018-12-18T21:44:59.892Z,10.20
2018-12-18T21:47:28.537Z,10.20
2018-12-18T21:49:57.195Z,10.20
2018-12-18T21:52:27.319Z,10.10
2018-12-18T21:54:55.996Z,10.20
2018-12-18T21:57:32.680Z,10.20
2018-12-18T22:00:01.374Z,10.20
2018-12-18T22:02:30.019Z,10.10
2018-12-18T22:04:58.619Z,10.10
2018-12-18T22:07:27.290Z,10.10
2018-12-18T22:09:55.932Z,10.10
2018-12-18T22:12:25.735Z,10.10
2018-12-18T22:14:54.464Z,10.10
2018-12-18T22:17:23.128Z,10.10
2018-12-18T22:19:51.746Z,10.10
2018-12-18T22:22:20.356Z,10.10
2018-12-18T22:24:49.003Z,10.10
2018-12-18T22:27:17.619Z,10.10
2018-12-18T22:29:46.233Z,10.20
2018-12-18T22:32:14.875Z,10.20
2018-12-18T22:34:43.514Z,10.20
2018-12-18T22:37:12.180Z,10.20
2018-12-18T22:39:40.834Z,10.20
2018-12-18T22:42:09.508Z,10.20
2018-12-18T22:44:38.128Z,10.30
2018-12-18T22:47:06.731Z,10.20
2018-12-18T22:49:37.494Z,10.20
2018-12-18T22:52:06.111Z,10.20
2018-12-18T22:54:34.708Z,10.20
2018-12-18T22:57:03.335Z,10.20
2018-12-18T22:59:31.959Z,10.30
2018-12-18T23:02:05.010Z,10.20
2018-12-18T23:04:33.932Z,10.20
2018-12-18T23:07:02.597Z,10.20
2018-12-18T23:09:31.193Z,10.30
2018-12-18T23:11:59.838Z,10.30
2018-12-18T23:14:28.506Z,10.30
2018-12-18T23:16:57.171Z,10.30
2018-12-18T23:19:25.844Z,10.30
2018-12-18T23:21:54.474Z,10.40
2018-12-18T23:24:23.105Z,10.30
2018-12-18T23:26:51.723Z,10.30
2018-12-18T23:29:20.335Z,10.30
2018-12-18T23:31:48.972Z,10.30
2018-12-18T23:34:17.610Z,10.30
2018-12-18T23:36:46.222Z,10.30
2018-12-18T23:39:14.856Z,10.30
2018-12-18T23:41:43.475Z,10.30
2018-12-18T23:44:12.096Z,10.30
2018-12-18T23:46:40.695Z,10.30
2018-12-18T23:49:09.326Z,10.30
2018-12-18T23:51:37.960Z,10.30
2018-12-18T23:54:06.591Z,10.30
2018-12-18T23:56:35.255Z,10.40
2018-12-18T23:59:03.916Z,10.40
